Hauptseite
METAR-TAF:

METAR-TAF

Flughäfen :

Fliegerhorst Holzdorf

Holzdorf, Deutschland

Breite: 51-46N, Länge: 013-11E, Höhe: 79 m

Beobachtung

Neuester Wetterbericht von vor 43 Minuten, um 15:20 UTC
Wind 6 kt aus Ost/Südost
Temperatur 28°C
Luftfeuchtigkeit 30%
Luftdruck 1024 hPa
Sichtweite 10 km oder mehr
Leicht bewölkt in der Höhe von 30000 ft

METAR: ETSH 231520Z 11006KT 9999 FEW300 28/09 Q1024 BLU+

Zeit: 18:03 (16:03 UTC)

Prognose

Neuester Wetterbericht von vor 6 Stunden und 3 Minuten, um 10:00 UTC
Gültige Prognose vom 23 um 08 UTC bis 23 um 17 UTC
Wind 5 kt aus Ost/Südost
Sichtweite: 1000 m
Leicht bewölkt in der Höhe von 28000 ft

TAF: ETSH 231000Z 2308/2317 12005KT 9999 NSW FEW280 CANCEL 1000 BY ETGL

Wetterbeobachtungen und Prognosen von mehr als 4000 Flughäfen (METAR und TAF Bericht).

Die verfügbaren Stationen werden durch gelbe und rote Markierungen auf der Karte dargestellt.

Führen Sie die Maus auf sie, um den Namen der Station zu sehen.

Darauf klicken, um die Beobachtung von Wetterbeobachtungen und Prognosen zu sehen.

Um die Karte zu ändern : klicken Sie auf den grünen Tasten mit einem schwarzen Kreuz Zum Vergrößern, auf den grünen Button mit einem Gedankenstrich zu verkleinern, oder auf die grünen Pfeile für benachbarte Karten.


METAR-TAF: